737でも香港カーブ!

LUXURY FLIGHT

03-6423-7371

羽田本店:東京都大田区羽田5-11-1
営業時間:10:00~20:00
定休日:毎週 月曜日
セントレア店:愛知県常滑市セントレア1-1
営業時間:10:00~20:00 年中無休

lv

737でも香港カーブ!

STAFF BLOG

2019/06/08 737でも香港カーブ!

こにゃにゃちわーーーー

 

本日の羽田のMETARは…

RJTT 080330Z 06006KT 9999 FEW010 BKN025 23/20 Q0998 NOSIG

RMK 1CU010 7SC025 A2950

 

一言で言うと…雲が多めでーーーす!!!

 

 

 

 

 

今日はこちらのお客様

 

 

 

img_1628

 

 

香港カーブでいつか綺麗なランディングをしてみたいっ!!!

 

 

…と夢見ながら羽田のLDAで練習し続けること一年

 

 

 

 

 

 

dsc00111

 

 

 

 

念願叶って初の香港カーブ着陸体験となりました。

 

なかなか思うようなアプローチが出来ず、

今まで出来ていたことが出来なくなるジレンマを抱えながら…

 

 

ご本人曰く「想像以上のカーブのキツさでした。」との事。

 

結果として、60分のフライトの中で着陸成功したのは一回だけとなりましたが、

基本がどれだけ大切か、どれだけ定着させているか、が肝であると改めて認識されたご様子。

 

 

そうなったらコッチのもんです

成長は確約されたようなもの

 

引き続き、頑張って参りましょう!!!!

 

我々スタッフも全力でサポートさせていただきます。

 

いつもご来店本当にありがとうございます。

 

 

 

「感謝」

TOP